Time;durP1;ratioP1;P1;durP2;ratioP2;P2;SDS_P1;SDS_P2;PMS_P1;PMS_P2;Temp;Humidity;BMP_temperature;BMP_pressure;BME280_temperature;BME280_humidity;BME280_pressure;Samples;Min_cycle;Max_cycle;Signal;HPM_P1;HPM_P2
2023/08/12 00:04:58;;;;;;;6.50;5.93;;;21.90;99.90;;;;;;10538877;28;20216;-83
2023/08/12 00:10:00;;;;;;;5.57;5.17;;;21.90;99.90;;;;;;10560599;28;20216;-83
2023/08/12 00:15:04;;;;;;;8.03;6.13;;;21.80;99.90;;;;;;10554865;28;20188;-83
2023/08/12 00:20:10;;;;;;;5.60;5.20;;;21.80;99.90;;;;;;10557948;28;20284;-84
2023/08/12 00:25:12;;;;;;;6.43;5.83;;;21.80;99.90;;;;;;10557130;28;20227;-84
2023/08/12 00:30:15;;;;;;;5.90;5.50;;;21.80;99.90;;;;;;10558296;28;20220;-83
2023/08/12 00:35:19;;;;;;;5.77;5.27;;;21.80;99.90;;;;;;10556753;28;20254;-84
2023/08/12 00:40:21;;;;;;;6.00;5.60;;;21.80;99.90;;;;;;10544709;28;20220;-83
2023/08/12 00:45:23;;;;;;;5.80;5.40;;;21.80;99.90;;;;;;10556024;28;20256;-84
2023/08/12 00:50:27;;;;;;;6.20;5.60;;;21.70;99.90;;;;;;10556776;28;20216;-84
2023/08/12 00:55:29;;;;;;;5.60;5.20;;;21.70;99.90;;;;;;10556481;28;20195;-83
2023/08/12 01:00:34;;;;;;;6.60;5.90;;;21.70;99.90;;;;;;10550554;28;20224;-83
2023/08/12 01:05:38;;;;;;;6.13;5.73;;;21.60;99.90;;;;;;10553787;28;20217;-84
2023/08/12 01:10:47;;;;;;;6.30;5.70;;;21.60;99.90;;;;;;10559420;28;20220;-84
2023/08/12 01:15:53;;;;;;;5.77;5.37;;;21.50;99.90;;;;;;10555643;28;20197;-84
2023/08/12 01:20:57;;;;;;;5.60;5.30;;;21.50;99.90;;;;;;10555873;28;20239;-83
2023/08/12 01:26:00;;;;;;;8.47;7.80;;;21.50;99.90;;;;;;10554223;28;20228;-83
2023/08/12 01:31:10;;;;;;;5.10;4.80;;;21.50;99.90;;;;;;10549581;28;20220;-83
2023/08/12 01:36:16;;;;;;;6.20;5.70;;;21.40;99.90;;;;;;10553866;28;20260;-84
2023/08/12 01:41:24;;;;;;;6.33;5.93;;;21.40;99.90;;;;;;10550620;28;20601;-83
2023/08/12 01:46:27;;;;;;;6.57;6.07;;;21.40;99.90;;;;;;10552127;28;20224;-84
2023/08/12 01:51:30;;;;;;;5.30;4.90;;;21.30;99.90;;;;;;10553771;28;20212;-84
2023/08/12 01:56:34;;;;;;;5.37;5.07;;;21.30;99.90;;;;;;10544040;28;20196;-82
2023/08/12 02:01:36;;;;;;;6.13;5.73;;;21.20;99.90;;;;;;10548109;28;20295;-84
2023/08/12 02:06:38;;;;;;;5.77;5.37;;;21.20;99.90;;;;;;10549987;28;20281;-84
2023/08/12 02:11:41;;;;;;;6.23;5.73;;;21.20;99.90;;;;;;10552257;28;20216;-83
2023/08/12 02:16:43;;;;;;;6.17;5.57;;;21.20;99.90;;;;;;10551528;28;20199;-83
2023/08/12 02:21:45;;;;;;;6.70;6.20;;;21.20;99.90;;;;;;10547632;28;20220;-84
2023/08/12 02:26:49;;;;;;;6.20;5.77;;;21.20;99.90;;;;;;10546306;28;20687;-83
2023/08/12 02:31:51;;;;;;;7.23;6.53;;;21.30;99.90;;;;;;10532086;28;20216;-84
2023/08/12 02:36:55;;;;;;;6.50;6.10;;;21.30;99.90;;;;;;10550032;28;20200;-84
2023/08/12 02:41:59;;;;;;;6.13;5.73;;;21.40;99.90;;;;;;10534254;28;20220;-84
2023/08/12 02:47:01;;;;;;;9.60;6.37;;;21.40;99.90;;;;;;10550812;28;20293;-83
2023/08/12 02:52:03;;;;;;;6.90;6.40;;;21.50;99.90;;;;;;10551440;28;20240;-83
2023/08/12 02:57:07;;;;;;;6.63;6.03;;;21.50;99.90;;;;;;10549687;28;20663;-83
2023/08/12 03:02:10;;;;;;;7.00;6.40;;;21.50;99.90;;;;;;10548763;28;20254;-83
2023/08/12 03:07:12;;;;;;;6.83;6.33;;;21.50;99.90;;;;;;10557551;28;20223;-84
2023/08/12 03:12:15;;;;;;;6.83;6.33;;;21.50;99.90;;;;;;10558741;28;20222;-83
2023/08/12 03:17:17;;;;;;;6.20;5.80;;;21.50;99.90;;;;;;10557578;28;20189;-83
2023/08/12 03:22:20;;;;;;;6.00;5.57;;;21.50;99.90;;;;;;10559451;28;20216;-84
2023/08/12 03:27:24;;;;;;;5.50;5.10;;;21.60;99.90;;;;;;10558424;28;20212;-83
2023/08/12 03:32:27;;;;;;;7.10;6.13;;;21.60;99.90;;;;;;10552239;28;20270;-83
2023/08/12 03:37:30;;;;;;;6.27;5.77;;;21.60;99.90;;;;;;10541284;28;20628;-84
2023/08/12 03:42:34;;;;;;;6.23;5.80;;;21.70;99.90;;;;;;10558138;28;20387;-83
2023/08/12 03:47:38;;;;;;;6.27;5.87;;;21.70;99.90;;;;;;10558303;28;20304;-84
2023/08/12 03:52:41;;;;;;;6.40;5.90;;;21.70;99.90;;;;;;10557283;28;20223;-83
2023/08/12 03:57:45;;;;;;;6.43;5.80;;;21.70;99.90;;;;;;10563791;28;20184;-83
2023/08/12 04:02:47;;;;;;;6.00;5.60;;;21.70;99.90;;;;;;10557747;28;20311;-84
2023/08/12 04:07:49;;;;;;;8.00;5.90;;;21.80;99.90;;;;;;10556610;28;20239;-84
2023/08/12 04:12:53;;;;;;;6.73;6.13;;;21.80;99.90;;;;;;10556554;28;20231;-84
2023/08/12 04:17:55;;;;;;;6.93;6.37;;;21.80;99.90;;;;;;10554207;28;20254;-84
2023/08/12 04:22:57;;;;;;;6.43;6.03;;;21.80;99.90;;;;;;10554921;28;20218;-83
2023/08/12 04:28:01;;;;;;;5.53;5.13;;;21.80;99.90;;;;;;10560191;28;20243;-84
2023/08/12 04:33:05;;;;;;;6.50;5.93;;;21.80;99.90;;;;;;10534627;28;20208;-84
2023/08/12 04:38:08;;;;;;;6.67;6.17;;;21.90;99.90;;;;;;10556643;28;20221;-83
2023/08/12 04:43:13;;;;;;;5.60;5.30;;;21.90;99.90;;;;;;10455413;22;20607;-81
2023/08/12 04:48:16;;;;;;;7.50;6.80;;;21.90;99.90;;;;;;10362742;28;20215;-81
2023/08/12 04:53:18;;;;;;;7.10;6.53;;;21.90;99.90;;;;;;10382362;28;20253;-81
2023/08/12 04:58:22;;;;;;;5.90;5.50;;;21.90;99.90;;;;;;10397104;28;20219;-81
2023/08/12 05:03:25;;;;;;;7.07;6.40;;;21.90;99.90;;;;;;10389897;28;20274;-80
2023/08/12 05:08:28;;;;;;;6.60;6.10;;;21.90;99.90;;;;;;10398687;28;20287;-81
2023/08/12 05:13:32;;;;;;;6.97;6.47;;;21.90;99.90;;;;;;10364573;28;20217;-81
2023/08/12 05:18:36;;;;;;;6.53;6.03;;;21.90;99.90;;;;;;10397757;28;20650;-81
2023/08/12 05:23:38;;;;;;;6.33;5.87;;;21.90;99.90;;;;;;10390371;28;20210;-81
2023/08/12 05:28:42;;;;;;;6.23;5.83;;;22.00;99.90;;;;;;10418408;28;20242;-80
2023/08/12 05:33:44;;;;;;;6.07;5.57;;;22.10;99.90;;;;;;10419002;28;20211;-81
2023/08/12 05:38:46;;;;;;;5.63;5.10;;;22.20;99.90;;;;;;10419822;28;20207;-81
2023/08/12 05:43:50;;;;;;;6.67;6.00;;;22.20;99.90;;;;;;10392800;28;20229;-81
2023/08/12 05:48:52;;;;;;;6.93;6.30;;;22.30;99.90;;;;;;10380080;28;20273;-81
2023/08/12 05:53:54;;;;;;;5.90;5.40;;;22.30;99.90;;;;;;10380807;28;20223;-81
2023/08/12 05:58:57;;;;;;;6.23;5.73;;;22.30;99.90;;;;;;10380414;28;20246;-81
2023/08/12 06:03:59;;;;;;;7.27;6.57;;;22.40;99.90;;;;;;10380290;28;20726;-81
2023/08/12 06:09:01;;;;;;;6.20;5.63;;;22.50;99.90;;;;;;10395170;28;20306;-81
2023/08/12 06:14:05;;;;;;;9.37;6.33;;;22.60;99.90;;;;;;10378315;28;20215;-82
2023/08/12 06:19:07;;;;;;;7.37;6.67;;;22.60;99.90;;;;;;10378905;28;20219;-81
2023/08/12 06:24:09;;;;;;;6.90;6.30;;;22.60;99.90;;;;;;10378780;28;20227;-81
2023/08/12 06:29:13;;;;;;;6.53;6.03;;;22.60;99.90;;;;;;10380333;28;20235;-81
2023/08/12 06:34:15;;;;;;;7.30;6.70;;;22.70;99.90;;;;;;10380401;28;20246;-81
2023/08/12 06:39:17;;;;;;;8.00;7.30;;;22.70;99.90;;;;;;10381344;28;20286;-82
2023/08/12 06:44:20;;;;;;;6.23;5.83;;;22.90;99.90;;;;;;10378048;28;20277;-81
2023/08/12 06:49:22;;;;;;;6.37;5.97;;;23.00;99.90;;;;;;10374210;28;20669;-81
2023/08/12 06:54:24;;;;;;;7.57;6.97;;;23.10;99.90;;;;;;10392489;28;20677;-81
2023/08/12 06:59:28;;;;;;;7.60;6.97;;;23.10;99.90;;;;;;10377330;28;20195;-81
2023/08/12 07:04:30;;;;;;;7.33;6.73;;;23.40;99.90;;;;;;10375707;28;20710;-81
2023/08/12 07:09:32;;;;;;;6.37;5.97;;;23.60;99.90;;;;;;10375071;28;20219;-81
2023/08/12 07:14:36;;;;;;;6.77;6.27;;;23.80;99.90;;;;;;10374157;28;20309;-81
2023/08/12 07:19:38;;;;;;;6.30;5.80;;;23.90;99.90;;;;;;10375809;28;20230;-81
2023/08/12 07:24:40;;;;;;;7.43;6.70;;;24.10;99.90;;;;;;10375523;28;20282;-81
2023/08/12 07:29:43;;;;;;;6.40;5.90;;;24.30;99.90;;;;;;10375964;28;20211;-81
2023/08/12 07:34:46;;;;;;;7.00;6.30;;;24.30;99.90;;;;;;10375902;28;20206;-81
2023/08/12 07:39:48;;;;;;;6.47;5.87;;;24.20;99.90;;;;;;10370653;28;20234;-82
2023/08/12 07:44:51;;;;;;;6.67;6.10;;;24.30;99.90;;;;;;10377384;28;20195;-81
2023/08/12 07:49:53;;;;;;;7.97;5.73;;;24.30;99.90;;;;;;10382130;28;20219;-81
2023/08/12 07:54:55;;;;;;;8.23;6.80;;;24.30;99.90;;;;;;10381076;28;20693;-81
2023/08/12 07:59:59;;;;;;;6.80;6.20;;;24.40;99.90;;;;;;10377712;28;20218;-81
2023/08/12 08:05:01;;;;;;;6.40;5.90;;;24.50;99.90;;;;;;10376669;28;20642;-81
2023/08/12 08:10:03;;;;;;;6.90;6.20;;;24.70;99.90;;;;;;10376446;28;20223;-81
2023/08/12 08:15:08;;;;;;;19.93;7.40;;;24.90;99.90;;;;;;10376622;28;20191;-81
2023/08/12 08:20:10;;;;;;;6.37;5.87;;;25.10;99.90;;;;;;10377040;28;20293;-81
2023/08/12 08:25:13;;;;;;;6.20;5.67;;;25.30;99.90;;;;;;10375317;28;20219;-81
2023/08/12 08:30:16;;;;;;;7.10;6.57;;;25.60;99.90;;;;;;10376048;28;20270;-81
2023/08/12 08:35:18;;;;;;;6.37;5.80;;;25.90;99.90;;;;;;10373027;28;20573;-81
2023/08/12 08:40:20;;;;;;;6.70;6.10;;;26.20;99.90;;;;;;10389415;28;20235;-81
2023/08/12 08:45:24;;;;;;;7.10;6.60;;;26.40;99.90;;;;;;10372852;28;20221;-81
2023/08/12 08:50:27;;;;;;;6.80;6.30;;;26.60;99.90;;;;;;10373305;28;20637;-82
2023/08/12 08:55:30;;;;;;;6.13;5.73;;;26.90;99.90;;;;;;10373754;28;20195;-81
2023/08/12 09:00:33;;;;;;;7.13;6.10;;;27.10;99.90;;;;;;10372961;28;20273;-82
2023/08/12 09:05:38;;;;;;;6.57;5.80;;;27.20;99.90;;;;;;10371145;28;20219;-81
2023/08/12 09:10:41;;;;;;;6.97;6.27;;;27.20;99.90;;;;;;10354378;28;20759;-81
2023/08/12 09:15:44;;;;;;;6.30;5.77;;;27.10;99.90;;;;;;10371423;28;20203;-81
2023/08/12 09:20:46;;;;;;;6.80;6.20;;;27.00;99.90;;;;;;10369572;28;20633;-82
2023/08/12 09:25:49;;;;;;;7.37;6.13;;;27.00;99.90;;;;;;10366046;28;20211;-83
2023/08/12 09:30:53;;;;;;;6.30;5.90;;;27.10;99.90;;;;;;10366556;28;20703;-81
2023/08/12 09:35:56;;;;;;;5.13;4.73;;;27.40;99.90;;;;;;10369029;28;20258;-82
2023/08/12 09:40:59;;;;;;;5.93;5.50;;;27.80;99.90;;;;;;10373719;28;20219;-82
2023/08/12 09:46:03;;;;;;;5.77;5.37;;;28.30;99.50;;;;;;10376817;28;20265;-82
2023/08/12 09:51:06;;;;;;;5.17;4.60;;;28.80;98.90;;;;;;10374388;28;20253;-82
2023/08/12 09:56:12;;;;;;;3.97;3.77;;;29.20;98.60;;;;;;10389576;28;20199;-83
2023/08/12 10:01:19;;;;;;;3.80;3.60;;;29.80;95.80;;;;;;10382748;28;20227;-83
2023/08/12 10:06:21;;;;;;;4.20;3.90;;;30.10;94.20;;;;;;10398074;28;20223;-82
2023/08/12 10:11:25;;;;;;;4.30;3.90;;;30.00;94.50;;;;;;10397107;28;20318;-83
2023/08/12 10:16:30;;;;;;;4.77;4.30;;;29.50;96.20;;;;;;10381085;28;20206;-83
2023/08/12 10:21:32;;;;;;;4.77;4.37;;;29.10;98.50;;;;;;10380945;28;20568;-82
2023/08/12 10:26:35;;;;;;;4.20;3.83;;;28.90;98.20;;;;;;10381839;28;20215;-83
2023/08/12 10:31:39;;;;;;;4.70;4.30;;;28.80;99.10;;;;;;10379607;28;20226;-82
2023/08/12 10:36:42;;;;;;;4.30;4.00;;;28.80;98.60;;;;;;10399030;28;20195;-81
2023/08/12 10:41:52;;;;;;;5.33;3.60;;;28.80;98.90;;;;;;10427143;23;20701;-83
2023/08/12 10:46:59;;;;;;;4.57;4.20;;;28.90;98.40;;;;;;10469849;28;20241;-83
2023/08/12 10:52:02;;;;;;;4.40;4.00;;;29.00;97.50;;;;;;10488738;28;20267;-82
2023/08/12 10:57:14;;;;;;;4.13;3.83;;;29.00;97.80;;;;;;10495785;28;20254;-83
2023/08/12 11:02:20;;;;;;;3.97;3.70;;;29.00;96.00;;;;;;10510545;28;20220;-83
2023/08/12 11:07:28;;;;;;;4.70;4.00;;;29.10;95.90;;;;;;10487254;28;20217;-81
2023/08/12 11:12:32;;;;;;;4.73;4.30;;;29.20;95.80;;;;;;10477407;28;20217;-81
2023/08/12 11:17:37;;;;;;;6.50;3.33;;;29.10;95.00;;;;;;10542141;28;20694;-81
2023/08/12 11:22:40;;;;;;;3.87;3.60;;;29.00;95.30;;;;;;10545575;28;20217;-82
2023/08/12 11:27:44;;;;;;;4.87;3.83;;;28.80;94.70;;;;;;10538680;28;20239;-83
2023/08/12 11:32:49;;;;;;;3.97;3.67;;;28.70;95.10;;;;;;10509628;28;20232;-80
2023/08/12 11:37:53;;;;;;;4.33;3.93;;;28.80;93.40;;;;;;10466399;28;20197;-81
2023/08/12 11:42:55;;;;;;;6.33;5.70;;;29.00;94.20;;;;;;10466563;28;20287;-81
2023/08/12 11:47:59;;;;;;;4.67;4.27;;;28.80;94.10;;;;;;10509225;28;20213;-81
2023/08/12 11:53:01;;;;;;;4.50;4.17;;;28.60;94.70;;;;;;10503855;28;20221;-83
2023/08/12 11:58:04;;;;;;;4.30;3.93;;;28.40;94.90;;;;;;10485181;28;20221;-82
2023/08/12 12:03:07;;;;;;;6.63;4.43;;;28.40;95.20;;;;;;10464188;28;20245;-80
2023/08/12 12:08:10;;;;;;;5.37;4.83;;;28.50;95.10;;;;;;10461586;28;20219;-80
2023/08/12 12:13:14;;;;;;;7.00;4.93;;;28.50;95.20;;;;;;10501608;28;20229;-84
2023/08/12 12:18:18;;;;;;;6.10;5.50;;;28.30;97.60;;;;;;10492524;28;20198;-82
2023/08/12 12:23:20;;;;;;;5.93;5.53;;;28.10;98.80;;;;;;10504652;28;20221;-82
2023/08/12 12:28:22;;;;;;;8.17;6.83;;;27.80;99.50;;;;;;10480652;28;20263;-82
2023/08/12 12:33:25;;;;;;;7.77;7.27;;;27.40;99.90;;;;;;10507272;28;20825;-81
2023/08/12 12:38:28;;;;;;;9.80;9.10;;;26.70;99.90;;;;;;10513564;28;20205;-81
2023/08/12 12:43:30;;;;;;;7.87;7.37;;;26.10;99.90;;;;;;10490010;28;20235;-80
2023/08/12 12:48:33;;;;;;;11.10;10.23;;;25.50;99.90;;;;;;10516140;28;20226;-79
2023/08/12 12:53:35;;;;;;;9.73;9.00;;;25.10;99.90;;;;;;10476947;28;20221;-81
2023/08/12 12:58:38;;;;;;;10.30;9.60;;;24.70;99.90;;;;;;10511797;28;20208;-82
2023/08/12 13:03:42;;;;;;;11.17;10.23;;;24.40;99.90;;;;;;10519257;28;20266;-84
2023/08/12 13:08:44;;;;;;;12.73;11.77;;;24.20;99.90;;;;;;10475964;28;20280;-84
2023/08/12 13:13:46;;;;;;;12.80;11.80;;;24.00;99.90;;;;;;10530599;28;20307;-82
2023/08/12 13:18:49;;;;;;;12.87;11.97;;;23.90;99.90;;;;;;10536717;28;20197;-84
2023/08/12 13:23:51;;;;;;;12.60;11.80;;;23.90;99.90;;;;;;10530383;28;20244;-84
2023/08/12 13:28:54;;;;;;;15.27;14.10;;;23.90;99.90;;;;;;10475771;28;20252;-82
2023/08/12 13:33:58;;;;;;;13.13;12.30;;;23.90;99.90;;;;;;10444095;28;20229;-83
2023/08/12 13:39:00;;;;;;;14.20;13.00;;;23.90;99.90;;;;;;10505350;28;20339;-83
2023/08/12 13:44:03;;;;;;;15.97;14.77;;;23.90;99.90;;;;;;10462512;28;20229;-82
2023/08/12 13:49:06;;;;;;;14.10;13.00;;;24.00;99.90;;;;;;10532931;28;20459;-84
2023/08/12 13:54:08;;;;;;;13.03;12.00;;;24.20;99.90;;;;;;10473652;28;20237;-83
2023/08/12 13:59:10;;;;;;;9.60;8.80;;;24.30;99.90;;;;;;10468918;28;20233;-84
2023/08/12 14:04:14;;;;;;;9.37;8.77;;;24.70;99.90;;;;;;10553208;28;20242;-84
2023/08/12 14:09:18;;;;;;;9.27;8.57;;;25.10;99.90;;;;;;10523476;28;20245;-82
2023/08/12 14:14:20;;;;;;;6.37;5.87;;;25.40;99.90;;;;;;10500217;28;20225;-82
2023/08/12 14:19:23;;;;;;;6.10;5.67;;;25.60;99.90;;;;;;10485920;28;20200;-83
2023/08/12 14:24:26;;;;;;;7.20;5.70;;;25.50;99.90;;;;;;10534495;28;20250;-81
2023/08/12 14:29:28;;;;;;;6.40;5.90;;;25.40;99.90;;;;;;10544613;28;20327;-83
2023/08/12 14:34:31;;;;;;;5.00;4.67;;;25.20;99.90;;;;;;10500367;28;20605;-85
2023/08/12 14:39:36;;;;;;;7.03;6.50;;;25.10;99.90;;;;;;10507148;28;20200;-82
2023/08/12 14:44:38;;;;;;;5.53;5.13;;;25.10;99.90;;;;;;10544893;28;20225;-84
2023/08/12 14:49:41;;;;;;;5.63;5.13;;;25.00;99.90;;;;;;10545225;28;20212;-84
2023/08/12 14:54:43;;;;;;;5.97;5.27;;;25.00;99.90;;;;;;10557813;28;20212;-84
2023/08/12 14:59:50;;;;;;;4.50;4.20;;;25.00;99.90;;;;;;10503716;28;20247;-83
2023/08/12 15:04:54;;;;;;;4.00;3.70;;;25.00;99.90;;;;;;10512660;28;20688;-83
2023/08/12 15:09:58;;;;;;;5.40;4.10;;;25.10;99.90;;;;;;10514835;28;20586;-82
2023/08/12 15:15:00;;;;;;;4.17;3.77;;;25.10;99.90;;;;;;10482396;28;20221;-83
2023/08/12 15:20:05;;;;;;;3.40;3.20;;;25.20;99.90;;;;;;10493321;28;20198;-83
2023/08/12 15:25:09;;;;;;;3.40;3.20;;;25.20;99.90;;;;;;10485062;28;20221;-83
2023/08/12 15:30:11;;;;;;;3.67;3.37;;;25.20;99.90;;;;;;10489674;28;20209;-80
2023/08/12 15:35:15;;;;;;;4.03;3.73;;;25.20;99.90;;;;;;10496347;28;20237;-83
2023/08/12 15:40:17;;;;;;;3.67;3.40;;;25.20;99.90;;;;;;10494202;28;20193;-84
2023/08/12 15:45:20;;;;;;;3.70;3.40;;;25.20;99.90;;;;;;10495266;28;20310;-84
2023/08/12 15:50:23;;;;;;;3.40;3.10;;;25.30;99.90;;;;;;10499919;28;20253;-84
2023/08/12 15:55:25;;;;;;;3.67;3.47;;;25.40;99.90;;;;;;10496276;28;20582;-84
2023/08/12 16:00:27;;;;;;;3.83;3.23;;;25.40;99.90;;;;;;10524121;28;20208;-84
2023/08/12 16:05:34;;;;;;;3.67;3.30;;;25.50;99.90;;;;;;10487669;28;20225;-84
2023/08/12 16:10:36;;;;;;;3.17;2.97;;;25.50;99.90;;;;;;10513109;28;20218;-85
2023/08/12 16:15:38;;;;;;;6.27;4.23;;;25.40;99.90;;;;;;10486649;28;20205;-84
2023/08/12 16:20:42;;;;;;;11.87;7.40;;;25.30;99.90;;;;;;10518207;28;20213;-83
2023/08/12 16:25:44;;;;;;;9.77;9.13;;;24.90;99.90;;;;;;10476129;28;20284;-85
2023/08/12 16:30:47;;;;;;;8.90;8.30;;;24.60;99.90;;;;;;10528355;28;20222;-85
2023/08/12 16:35:50;;;;;;;13.07;12.17;;;24.30;99.90;;;;;;10541908;28;20199;-84
2023/08/12 16:40:52;;;;;;;14.37;13.37;;;24.10;99.90;;;;;;10534265;28;20223;-84
2023/08/12 16:45:54;;;;;;;17.20;15.60;;;23.90;99.90;;;;;;10516735;28;20233;-84
2023/08/12 16:50:57;;;;;;;16.00;14.90;;;23.90;99.90;;;;;;10533068;28;20219;-84
2023/08/12 16:56:00;;;;;;;16.13;15.13;;;23.70;99.90;;;;;;10537333;28;20222;-84
2023/08/12 17:01:02;;;;;;;14.40;13.53;;;23.70;99.90;;;;;;10529744;28;20212;-84
2023/08/12 17:06:05;;;;;;;11.33;10.53;;;23.70;99.90;;;;;;10528431;28;20204;-85
2023/08/12 17:11:08;;;;;;;18.17;16.87;;;23.60;99.90;;;;;;10526502;28;20220;-84
2023/08/12 17:16:10;;;;;;;12.53;11.80;;;23.60;99.90;;;;;;10510308;28;20198;-84
2023/08/12 17:21:13;;;;;;;11.73;11.13;;;23.50;99.90;;;;;;10525043;28;20726;-84
2023/08/12 17:26:16;;;;;;;11.90;10.90;;;23.60;99.90;;;;;;10473964;28;20201;-85
2023/08/12 17:31:18;;;;;;;10.10;9.50;;;23.70;99.90;;;;;;10488104;28;20212;-85
2023/08/12 17:36:21;;;;;;;6.27;5.87;;;23.80;99.90;;;;;;10518970;28;20201;-85
2023/08/12 17:41:24;;;;;;;8.67;8.27;;;23.80;99.90;;;;;;10517691;28;20220;-84
2023/08/12 17:46:26;;;;;;;7.10;6.80;;;23.80;99.90;;;;;;10506124;28;20258;-85
2023/08/12 17:51:29;;;;;;;8.10;7.70;;;23.80;99.90;;;;;;10516941;28;20228;-85
2023/08/12 17:56:31;;;;;;;7.70;7.30;;;23.80;99.90;;;;;;10500290;28;20355;-85
2023/08/12 18:01:34;;;;;;;7.83;7.43;;;23.70;99.90;;;;;;10507687;28;20218;-84
2023/08/12 18:06:37;;;;;;;7.77;7.37;;;23.70;99.90;;;;;;10522051;28;20204;-84
2023/08/12 18:11:40;;;;;;;8.87;8.37;;;23.70;99.90;;;;;;10528141;28;20756;-85
2023/08/12 18:16:42;;;;;;;9.50;8.90;;;23.80;99.90;;;;;;10527542;28;20219;-85
2023/08/12 18:21:46;;;;;;;9.73;9.03;;;23.70;99.90;;;;;;10525456;28;20206;-85
2023/08/12 18:26:48;;;;;;;8.10;7.53;;;23.70;99.90;;;;;;10510451;28;20197;-84
2023/08/12 18:31:50;;;;;;;15.33;13.00;;;23.60;99.90;;;;;;10509727;28;20213;-85
2023/08/12 18:36:54;;;;;;;10.63;10.03;;;23.50;99.90;;;;;;10502975;28;20239;-85
2023/08/12 18:41:56;;;;;;;9.07;8.37;;;23.50;99.90;;;;;;10526817;28;20251;-84
2023/08/12 18:46:58;;;;;;;8.67;8.17;;;23.40;99.90;;;;;;10511313;28;20205;-84
2023/08/12 18:52:03;;;;;;;8.70;8.23;;;23.30;99.90;;;;;;10517465;28;20217;-84
2023/08/12 18:57:05;;;;;;;9.07;8.33;;;23.30;99.90;;;;;;10528337;28;20265;-85
2023/08/12 19:02:09;;;;;;;5.93;5.60;;;23.20;99.90;;;;;;10523019;28;20278;-85
2023/08/12 19:07:12;;;;;;;8.23;7.73;;;23.20;99.90;;;;;;10496736;28;20207;-85
2023/08/12 19:12:15;;;;;;;6.87;6.37;;;23.10;99.90;;;;;;10538902;28;20430;-84
2023/08/12 19:17:17;;;;;;;9.60;8.90;;;23.10;99.90;;;;;;10523873;28;20561;-84
2023/08/12 19:22:20;;;;;;;9.10;8.57;;;23.00;99.90;;;;;;10515671;28;20239;-84
2023/08/12 19:27:23;;;;;;;8.90;8.30;;;23.00;99.90;;;;;;10522677;28;20254;-85
2023/08/12 19:32:25;;;;;;;9.73;9.07;;;22.90;99.90;;;;;;10510299;28;20229;-84
2023/08/12 19:37:29;;;;;;;8.60;7.90;;;22.90;99.90;;;;;;10493248;28;20204;-84
2023/08/12 19:42:31;;;;;;;8.17;7.77;;;22.90;99.90;;;;;;10522188;28;20282;-84
2023/08/12 19:47:40;;;;;;;9.40;8.80;;;22.80;99.90;;;;;;10520958;28;20243;-84
2023/08/12 19:52:43;;;;;;;9.77;9.07;;;22.80;99.90;;;;;;10530795;28;20216;-84
2023/08/12 19:57:45;;;;;;;9.97;9.37;;;22.80;99.90;;;;;;10526018;28;20185;-84
2023/08/12 20:02:49;;;;;;;10.90;10.30;;;22.70;99.90;;;;;;10532704;28;20218;-84
2023/08/12 20:07:52;;;;;;;10.77;10.17;;;22.70;99.90;;;;;;10502464;28;20208;-85
2023/08/12 20:12:54;;;;;;;11.63;10.97;;;22.60;99.90;;;;;;10508616;28;20220;-85
2023/08/12 20:17:56;;;;;;;12.47;11.73;;;22.60;99.90;;;;;;10524219;28;20200;-84
2023/08/12 20:23:00;;;;;;;12.37;11.57;;;22.50;99.90;;;;;;10534590;28;20232;-85
2023/08/12 20:28:02;;;;;;;12.37;11.47;;;22.50;99.90;;;;;;10522823;28;20222;-84
2023/08/12 20:33:06;;;;;;;13.10;12.20;;;22.50;99.90;;;;;;10526636;28;20226;-84
2023/08/12 20:38:10;;;;;;;12.80;11.80;;;22.40;99.90;;;;;;10493338;28;20285;-84
2023/08/12 20:43:12;;;;;;;13.80;12.60;;;22.40;99.90;;;;;;10540200;28;20225;-84
2023/08/12 20:48:15;;;;;;;13.57;12.57;;;22.40;99.90;;;;;;10542129;28;20209;-85
2023/08/12 20:53:19;;;;;;;13.17;12.27;;;22.40;99.90;;;;;;10543120;28;20221;-85
2023/08/12 20:58:21;;;;;;;14.10;13.20;;;22.40;99.90;;;;;;10516486;28;20189;-84
2023/08/12 21:03:23;;;;;;;14.73;13.63;;;22.50;99.90;;;;;;10528282;28;20230;-84
2023/08/12 21:08:27;;;;;;;13.83;12.57;;;22.50;99.90;;;;;;10500280;28;20264;-85
2023/08/12 21:13:29;;;;;;;13.97;13.07;;;22.50;99.90;;;;;;10532754;28;20227;-84
2023/08/12 21:18:31;;;;;;;14.27;13.37;;;22.50;99.90;;;;;;10518120;28;20181;-85
2023/08/12 21:23:34;;;;;;;14.40;13.23;;;22.60;99.90;;;;;;10505557;28;20304;-84
2023/08/12 21:28:36;;;;;;;14.23;13.27;;;22.60;99.90;;;;;;10514443;28;20228;-84
2023/08/12 21:33:38;;;;;;;14.47;13.27;;;22.60;99.90;;;;;;10538396;28;20707;-84
2023/08/12 21:38:42;;;;;;;13.53;12.60;;;22.60;99.90;;;;;;10539917;28;20250;-84
2023/08/12 21:43:44;;;;;;;11.93;11.03;;;22.70;99.90;;;;;;10532238;28;20216;-84
2023/08/12 21:48:46;;;;;;;13.00;12.17;;;22.60;99.90;;;;;;10532151;28;20307;-84
2023/08/12 21:53:50;;;;;;;14.07;13.17;;;22.60;99.90;;;;;;10540359;28;20660;-84
2023/08/12 21:58:53;;;;;;;13.07;12.17;;;22.60;99.90;;;;;;10514463;28;20269;-85
2023/08/12 22:03:55;;;;;;;12.97;12.00;;;22.50;99.90;;;;;;10496389;28;20352;-84
2023/08/12 22:08:58;;;;;;;11.90;11.10;;;22.40;99.90;;;;;;10547271;28;20216;-85
2023/08/12 22:14:00;;;;;;;13.10;12.20;;;22.40;99.90;;;;;;10569656;28;20229;-85
2023/08/12 22:19:03;;;;;;;13.87;12.87;;;22.40;99.90;;;;;;10544155;28;20177;-85
2023/08/12 22:24:07;;;;;;;12.80;12.00;;;22.30;99.90;;;;;;10551092;28;20263;-85
2023/08/12 22:29:09;;;;;;;13.03;12.13;;;22.30;99.90;;;;;;10540641;28;20585;-85
2023/08/12 22:34:11;;;;;;;10.70;9.80;;;22.30;99.90;;;;;;10520246;28;20717;-84
2023/08/12 22:39:15;;;;;;;12.70;11.80;;;22.30;99.90;;;;;;10534496;28;20193;-84
2023/08/12 22:44:17;;;;;;;13.00;12.10;;;22.30;99.90;;;;;;10471853;22;20226;-82
2023/08/12 22:49:19;;;;;;;12.47;11.67;;;22.40;99.90;;;;;;10422804;28;20218;-81
2023/08/12 22:54:23;;;;;;;13.10;12.17;;;22.30;99.90;;;;;;10418229;28;20264;-81
2023/08/12 22:59:25;;;;;;;12.20;11.30;;;22.30;99.90;;;;;;10419539;28;20634;-83
2023/08/12 23:04:27;;;;;;;13.10;12.00;;;22.20;99.90;;;;;;10404617;28;20249;-81
2023/08/12 23:09:30;;;;;;;13.07;11.93;;;22.20;99.90;;;;;;10422875;28;20222;-80
2023/08/12 23:14:32;;;;;;;12.93;12.03;;;22.20;99.90;;;;;;10439619;28;20216;-80
2023/08/12 23:19:35;;;;;;;13.07;11.90;;;22.10;99.90;;;;;;10414480;28;20195;-80
2023/08/12 23:24:38;;;;;;;11.87;11.07;;;22.10;99.90;;;;;;10421369;28;20221;-80
2023/08/12 23:29:41;;;;;;;12.60;11.80;;;22.10;99.90;;;;;;10418684;28;20217;-80
2023/08/12 23:34:43;;;;;;;12.37;11.37;;;22.00;99.90;;;;;;10399986;28;20245;-80
2023/08/12 23:39:46;;;;;;;11.97;11.07;;;22.00;99.90;;;;;;10419596;28;20210;-79
2023/08/12 23:44:49;;;;;;;11.90;11.00;;;22.00;99.90;;;;;;10417507;28;20234;-79
2023/08/12 23:49:52;;;;;;;12.43;11.40;;;21.90;99.90;;;;;;10417481;28;20308;-80
2023/08/12 23:54:56;;;;;;;12.97;11.67;;;21.90;99.90;;;;;;10389893;28;20694;-80
2023/08/12 23:59:58;;;;;;;12.00;11.10;;;21.90;99.90;;;;;;10418782;28;20569;-80
